Time;durP1;ratioP1;P1;durP2;ratioP2;P2;SDS_P1;SDS_P2;PMS_P1;PMS_P2;Temp;Humidity;BMP_temperature;BMP_pressure;BME280_temperature;BME280_humidity;BME280_pressure;Samples;Min_cycle;Max_cycle;Signal;HPM_P1;HPM_P2
2022/01/04 00:03:42;;;;;;;6.13;3.88;;;;;;;21.88;nan;99926.41;20382005;28;99236;-60
2022/01/04 00:13:43;;;;;;;6.03;3.85;;;;;;;21.85;nan;99932.78;20377954;28;98545;-60
2022/01/04 00:23:47;;;;;;;5.82;3.40;;;;;;;21.82;nan;99932.22;20373692;28;103447;-61
2022/01/04 00:33:48;;;;;;;7.35;3.40;;;;;;;21.80;nan;99936.78;20375789;28;101099;-61
2022/01/04 00:43:48;;;;;;;5.43;3.42;;;;;;;21.74;nan;99938.97;20375019;28;97954;-61
2022/01/04 00:53:49;;;;;;;5.80;3.38;;;;;;;21.70;nan;99915.66;20400292;28;101371;-61
2022/01/04 01:03:50;;;;;;;5.78;3.40;;;;;;;21.66;nan;99924.81;20377509;28;100994;-60
2022/01/04 01:13:51;;;;;;;5.82;3.70;;;;;;;21.63;nan;99922.44;20375838;28;101984;-60
2022/01/04 01:23:51;;;;;;;5.22;3.42;;;;;;;21.61;nan;99904.13;20416336;28;101482;-60
2022/01/04 01:33:53;;;;;;;5.53;3.40;;;;;;;21.56;nan;99891.34;20387237;28;99664;-60
2022/01/04 01:43:55;;;;;;;5.35;2.95;;;;;;;21.57;nan;99876.38;20389044;28;101092;-60
2022/01/04 01:53:57;;;;;;;5.00;3.40;;;;;;;21.53;nan;99845.97;20406671;28;98474;-60
2022/01/04 02:03:58;;;;;;;4.80;3.60;;;;;;;21.51;nan;99818.94;20392720;28;98694;-60
2022/01/04 02:14:00;;;;;;;5.15;3.67;;;;;;;21.49;nan;99795.34;20386726;28;101611;-60
2022/01/04 02:24:01;;;;;;;4.85;3.40;;;;;;;21.48;nan;99783.13;20392891;28;102235;-61
2022/01/04 02:34:02;;;;;;;4.88;3.30;;;;;;;21.44;nan;99771.22;20386519;28;101261;-60
2022/01/04 02:44:04;;;;;;;5.00;3.30;;;;;;;21.44;nan;99789.66;20404211;28;101474;-57
2022/01/04 02:54:05;;;;;;;4.95;3.30;;;;;;;21.44;nan;99787.03;20399790;28;101720;-60
2022/01/04 03:04:07;;;;;;;4.97;3.28;;;;;;;21.39;nan;99774.25;20402631;28;101798;-60
2022/01/04 03:14:08;;;;;;;3.93;3.00;;;;;;;21.39;nan;99760.25;20382450;28;103182;-60
2022/01/04 03:24:12;;;;;;;3.80;3.05;;;;;;;21.36;nan;99750.00;20399244;28;101167;-60
2022/01/04 03:34:13;;;;;;;5.45;3.65;;;;;;;21.34;nan;99720.34;20381739;28;97693;-60
2022/01/04 03:44:18;;;;;;;4.18;3.25;;;;;;;21.31;nan;99700.34;20383860;28;102355;-60
2022/01/04 03:54:19;;;;;;;6.38;3.63;;;;;;;21.28;nan;99696.19;20409451;28;100792;-61
2022/01/04 04:04:21;;;;;;;4.05;3.28;;;;;;;21.28;nan;99692.75;20381370;28;107599;-61
2022/01/04 04:14:21;;;;;;;4.57;3.55;;;;;;;21.26;nan;99682.34;20381427;28;101712;-60
2022/01/04 04:24:21;;;;;;;4.95;3.50;;;;;;;21.24;nan;99678.19;20451862;28;100183;-60
2022/01/04 04:34:23;;;;;;;4.60;3.30;;;;;;;21.24;nan;99662.41;20374350;28;101190;-59
2022/01/04 04:44:24;;;;;;;5.07;3.60;;;;;;;21.23;nan;99656.28;20394636;28;100804;-60
2022/01/04 04:54:28;;;;;;;4.47;3.35;;;;;;;21.21;nan;99654.75;20389974;28;98424;-60
2022/01/04 05:04:29;;;;;;;4.85;3.50;;;;;;;21.19;nan;99630.38;20395281;28;101613;-60
2022/01/04 05:14:29;;;;;;;3.83;3.20;;;;;;;21.27;nan;99627.88;20384239;28;106408;-59
2022/01/04 05:24:30;;;;;;;3.58;3.13;;;;;;;21.46;nan;99620.94;20385233;28;98945;-60
2022/01/04 05:34:32;;;;;;;5.23;2.97;;;;;;;21.61;nan;99629.31;20421969;28;100053;-59
2022/01/04 05:44:32;;;;;;;4.25;3.20;;;;;;;21.72;nan;99606.25;20399358;28;100254;-59
2022/01/04 05:54:33;;;;;;;7.30;3.75;;;;;;;21.79;nan;99596.00;20411721;28;100531;-60
2022/01/04 06:04:36;;;;;;;5.88;3.38;;;;;;;21.83;nan;99580.72;20388139;28;99684;-60
2022/01/04 06:14:51;;;;;;;13.32;4.07;;;;;;;21.80;nan;99570.47;20383219;28;99469;-60
2022/01/04 06:24:54;;;;;;;12.27;4.45;;;;;;;21.80;nan;99578.38;20395551;28;100933;-61
2022/01/04 06:34:55;;;;;;;12.60;4.53;;;;;;;21.79;nan;99566.16;20395173;28;99302;-61
2022/01/04 06:44:57;;;;;;;13.23;4.95;;;;;;;21.84;nan;99548.94;20398783;28;102447;-59
2022/01/04 06:54:57;;;;;;;9.52;5.00;;;;;;;21.87;nan;99526.75;20398685;28;101306;-61
2022/01/04 07:04:58;;;;;;;22.13;4.78;;;;;;;21.94;nan;99524.38;20392266;28;102196;-61
2022/01/04 07:15:00;;;;;;;8.98;4.90;;;;;;;21.86;nan;99531.19;20399387;28;102323;-60
2022/01/04 07:25:01;;;;;;;7.80;4.17;;;;;;;21.91;nan;99557.13;20406596;28;99594;-60
2022/01/04 07:35:02;;;;;;;8.30;4.25;;;;;;;21.97;nan;99550.44;20402094;28;101478;-60
2022/01/04 07:45:03;;;;;;;5.75;3.88;;;;;;;21.95;nan;99540.03;20456654;28;98976;-60
2022/01/04 07:55:06;;;;;;;7.25;3.88;;;;;;;21.99;nan;99520.31;20390697;28;102351;-60
2022/01/04 08:05:09;;;;;;;;;;;;;;;22.04;nan;99496.97;20391471;28;100840;-60
2022/01/04 08:15:11;;;;;;;5.95;3.78;;;;;;;22.05;nan;99472.28;20402087;28;101616;-60
2022/01/04 08:25:13;;;;;;;9.10;4.20;;;;;;;22.10;nan;99460.47;20409701;28;97954;-61
2022/01/04 08:35:14;;;;;;;7.22;3.60;;;;;;;22.13;nan;99453.09;20429603;28;101737;-60
2022/01/04 08:45:16;;;;;;;7.43;3.55;;;;;;;22.12;nan;99459.34;20431947;28;98870;-60
2022/01/04 08:55:17;;;;;;;5.03;3.47;;;;;;;22.14;nan;99446.00;20436185;28;98378;-60
2022/01/04 09:05:18;;;;;;;6.85;3.67;;;;;;;22.15;nan;99437.94;20438044;28;100885;-60
2022/01/04 09:25:28;;;;;;;5.80;4.13;;;;;;;22.11;nan;99417.31;20436290;28;101289;-61
2022/01/04 09:35:29;;;;;;;7.13;4.55;;;;;;;22.10;nan;99390.13;20429150;28;99293;-60
2022/01/04 09:45:31;;;;;;;6.30;4.13;;;;;;;22.11;nan;99375.13;20417583;28;99770;-60
2022/01/04 09:55:34;;;;;;;7.23;4.80;;;;;;;22.11;nan;99343.50;20416049;28;101263;-60
2022/01/04 10:05:39;;;;;;;11.30;5.28;;;;;;;22.12;nan;99301.16;20409890;28;102412;-61
2022/01/04 10:15:43;;;;;;;11.45;6.07;;;;;;;22.12;nan;99298.53;20416723;28;99593;-60
2022/01/04 10:25:45;;;;;;;14.80;6.40;;;;;;;22.14;nan;99301.84;20416600;28;101163;-60
2022/01/04 10:35:53;;;;;;;11.27;6.18;;;;;;;22.12;nan;99293.25;20413286;28;99234;-60
2022/01/04 10:45:56;;;;;;;8.20;5.35;;;;;;;22.14;nan;99256.19;20411400;28;99076;-59
2022/01/04 10:56:03;;;;;;;7.40;5.82;;;;;;;22.14;nan;99259.66;20415691;28;100226;-61
2022/01/04 11:06:08;;;;;;;10.82;5.57;;;;;;;22.13;nan;99234.28;20411515;28;99506;-60
2022/01/04 11:16:10;;;;;;;12.23;7.45;;;;;;;22.12;nan;99211.53;20404549;28;98621;-61
2022/01/04 11:26:13;;;;;;;14.45;6.82;;;;;;;22.09;nan;99188.09;20410039;28;101632;-60
2022/01/04 11:36:16;;;;;;;14.20;8.80;;;;;;;22.08;nan;99167.97;20418571;28;97905;-60
2022/01/04 11:46:35;;;;;;;14.73;9.68;;;;;;;22.04;nan;99148.19;20450333;28;100138;-62
2022/01/04 11:56:52;;;;;;;11.75;8.55;;;;;;;22.07;nan;99150.53;20426974;28;102511;-60
2022/01/04 12:06:55;;;;;;;12.48;9.82;;;;;;;22.05;nan;99134.84;20488533;28;100981;-60
2022/01/04 12:17:07;;;;;;;14.10;9.75;;;;;;;22.05;nan;99134.03;20485848;28;102481;-60
2022/01/04 12:27:13;;;;;;;13.27;9.83;;;;;;;22.07;nan;99116.28;20412829;28;97557;-59
2022/01/04 12:37:18;;;;;;;16.88;11.40;;;;;;;22.06;nan;99107.50;20426264;28;98852;-60
2022/01/04 12:47:20;;;;;;;16.48;12.18;;;;;;;22.04;nan;99079.66;20399813;28;102596;-60
2022/01/04 12:57:22;;;;;;;18.02;10.57;;;;;;;22.05;nan;99082.13;20399529;28;101880;-60
2022/01/04 13:07:34;;;;;;;13.67;10.30;;;;;;;22.09;nan;99042.28;20398181;28;99365;-60
2022/01/04 13:17:41;;;;;;;15.57;10.88;;;;;;;22.10;nan;99028.13;20413549;28;98941;-61
2022/01/04 13:27:43;;;;;;;21.77;13.38;;;;;;;22.09;nan;99018.56;20408041;28;97407;-61
2022/01/04 13:37:54;;;;;;;18.65;13.02;;;;;;;22.13;nan;99033.91;20406752;28;98087;-61
2022/01/04 13:47:59;;;;;;;19.67;12.40;;;;;;;22.14;nan;99003.94;20402425;28;102232;-61
2022/01/04 13:58:00;;;;;;;18.85;11.63;;;;;;;22.17;nan;99014.16;20406392;28;100880;-61
2022/01/04 14:08:00;;;;;;;18.13;11.18;;;;;;;22.16;nan;98990.59;20409286;28;99263;-61
2022/01/04 14:18:10;;;;;;;16.55;10.63;;;;;;;22.20;nan;98982.22;20409718;28;101628;-60
2022/01/04 14:28:11;;;;;;;17.60;10.38;;;;;;;22.22;nan;98985.50;20397482;28;101971;-61
2022/01/04 14:38:13;;;;;;;15.68;9.90;;;;;;;22.21;nan;98957.47;20401269;28;98501;-61
2022/01/04 14:48:15;;;;;;;15.07;9.77;;;;;;;22.21;nan;98930.28;20436188;28;100423;-61
2022/01/04 14:58:16;;;;;;;;;;;;;;;22.21;nan;98964.56;20424439;28;97888;-62
2022/01/04 15:08:16;;;;;;;17.90;10.33;;;;;;;22.13;nan;98975.91;20407979;28;99175;-61
2022/01/04 15:18:17;;;;;;;13.27;9.35;;;;;;;22.09;nan;98993.03;20406299;28;98272;-61
2022/01/04 15:28:18;;;;;;;12.80;8.77;;;;;;;22.04;nan;98980.31;20410463;28;100367;-61
2022/01/04 15:38:18;;;;;;;14.27;8.63;;;;;;;22.09;nan;98945.56;20389045;28;99240;-60
2022/01/04 15:48:22;;;;;;;12.77;8.27;;;;;;;22.12;nan;98918.91;20370999;28;101005;-60
2022/01/04 15:58:23;;;;;;;15.00;8.57;;;;;;;22.13;nan;98898.63;20393131;28;101443;-61
2022/01/04 16:08:25;;;;;;;12.65;7.60;;;;;;;22.14;nan;98885.31;20375891;28;103154;-61
2022/01/04 16:21:32;;;;;;;10.52;7.32;;;;;;;22.17;nan;98882.34;20394030;28;99086;-60
2022/01/04 16:29:06;;;;;;;12.35;7.20;;;;;;;22.12;nan;98895.19;20433088;28;101486;-59
2022/01/04 16:39:17;;;;;;;10.57;7.15;;;;;;;22.15;nan;98886.13;20372501;28;102035;-60
2022/01/04 16:49:19;;;;;;;16.27;9.07;;;;;;;22.13;nan;98888.09;20382632;28;101302;-60
2022/01/04 16:59:20;;;;;;;14.60;7.83;;;;;;;22.12;nan;98889.91;20400264;28;100128;-60
2022/01/04 17:09:27;;;;;;;11.32;7.63;;;;;;;22.13;nan;98888.94;20399844;28;102240;-59
2022/01/04 17:19:29;;;;;;;11.55;7.30;;;;;;;22.14;nan;98890.56;20442866;28;101468;-61
2022/01/04 17:29:30;;;;;;;21.98;7.78;;;;;;;22.12;nan;98883.78;20403932;28;98452;-61
2022/01/04 17:39:30;;;;;;;12.48;7.30;;;;;;;22.12;nan;98882.00;20406824;27;100858;-60
2022/01/04 17:49:30;;;;;;;13.25;8.48;;;;;;;22.15;nan;98867.66;20388609;28;102360;-61
2022/01/04 17:59:31;;;;;;;16.65;8.13;;;;;;;22.17;nan;98863.88;20377569;28;99458;-61
2022/01/04 18:09:33;;;;;;;24.50;8.30;;;;;;;22.29;nan;98845.09;20418062;28;102123;-62
2022/01/04 18:19:34;;;;;;;18.30;7.80;;;;;;;22.43;nan;98846.31;20408657;28;98598;-61
2022/01/04 18:29:35;;;;;;;12.98;6.78;;;;;;;22.57;nan;98840.38;20432808;28;101304;-61
2022/01/04 18:39:36;;;;;;;15.63;7.53;;;;;;;22.67;nan;98851.56;20422537;28;102328;-62
2022/01/04 18:49:37;;;;;;;16.15;6.50;;;;;;;22.72;nan;98861.63;20420975;28;98504;-62
2022/01/04 18:59:37;;;;;;;12.52;6.82;;;;;;;22.74;nan;98862.28;20418936;28;101989;-61
2022/01/04 19:09:39;;;;;;;11.97;6.27;;;;;;;22.79;nan;98869.69;20415421;28;98890;-61
2022/01/04 19:19:39;;;;;;;10.85;5.95;;;;;;;22.81;nan;98878.28;20414667;28;99031;-61
2022/01/04 19:29:40;;;;;;;8.98;6.20;;;;;;;22.72;nan;98877.47;20424909;28;101889;-61
2022/01/04 19:39:40;;;;;;;12.32;5.97;;;;;;;22.74;nan;98880.78;20398520;28;102086;-62
2022/01/04 19:49:41;;;;;;;11.20;5.57;;;;;;;22.61;nan;98881.25;20418001;28;102206;-61
2022/01/04 19:59:43;;;;;;;12.85;4.85;;;;;;;22.52;nan;98882.22;20401992;28;100589;-61
2022/01/04 20:09:44;;;;;;;12.70;5.15;;;;;;;22.45;nan;98875.97;20417182;28;98840;-60
2022/01/04 20:19:45;;;;;;;8.40;4.50;;;;;;;22.38;nan;98867.88;20438749;28;104047;-59
2022/01/04 20:29:47;;;;;;;11.25;4.50;;;;;;;22.34;nan;98837.53;20422915;28;102527;-61
2022/01/04 20:39:47;;;;;;;7.77;4.70;;;;;;;22.28;nan;98815.28;20420605;28;97473;-60
2022/01/04 20:49:49;;;;;;;6.50;4.43;;;;;;;22.23;nan;98810.50;20404836;28;98169;-61
2022/01/04 20:59:50;;;;;;;7.50;4.03;;;;;;;22.20;nan;98815.28;20418615;28;97461;-60
2022/01/04 21:09:50;;;;;;;8.00;4.15;;;;;;;22.16;nan;98803.41;20421265;28;98498;-60
2022/01/04 21:19:51;;;;;;;7.00;3.80;;;;;;;22.14;nan;98826.47;20415392;28;97483;-60
2022/01/04 21:29:51;;;;;;;6.72;3.70;;;;;;;22.12;nan;98826.63;20416289;28;97830;-61
2022/01/04 21:39:54;;;;;;;5.47;3.50;;;;;;;22.11;nan;98850.53;20429112;28;97483;-61
2022/01/04 21:49:55;;;;;;;5.80;3.60;;;;;;;22.06;nan;98862.38;20441653;28;101218;-61
2022/01/04 21:59:55;;;;;;;4.63;3.35;;;;;;;22.05;nan;98873.09;20444351;28;100933;-60
2022/01/04 22:09:58;;;;;;;6.30;3.35;;;;;;;22.00;nan;98854.31;20435705;28;98721;-59
2022/01/04 22:19:59;;;;;;;;;;;;;;;22.00;nan;98841.94;20418963;28;100632;-61
2022/01/04 22:30:01;;;;;;;3.90;3.13;;;;;;;21.93;nan;98838.28;20417870;28;101737;-61
2022/01/04 22:40:03;;;;;;;7.77;3.50;;;;;;;21.89;nan;98836.97;20415550;28;101846;-61
2022/01/04 22:50:04;;;;;;;5.07;3.08;;;;;;;21.89;nan;98831.72;20413302;28;101578;-61
2022/01/04 23:00:08;;;;;;;3.85;2.88;;;;;;;21.86;nan;98816.19;20429112;28;97992;-61
2022/01/04 23:10:11;;;;;;;3.90;3.15;;;;;;;21.83;nan;98792.81;20450711;28;98447;-61
2022/01/04 23:20:12;;;;;;;;;;;;;;;21.85;nan;98785.56;20417648;28;102068;-61
2022/01/04 23:30:14;;;;;;;3.20;2.72;;;;;;;21.78;nan;98792.50;20414913;28;101826;-60
2022/01/04 23:40:16;;;;;;;4.65;2.80;;;;;;;21.75;nan;98781.28;20423960;28;99917;-60
2022/01/04 23:50:16;;;;;;;8.27;3.17;;;;;;;21.71;nan;98787.84;20437691;28;102129;-61
